Time;durP1;ratioP1;P1;durP2;ratioP2;P2;SDS_P1;SDS_P2;PMS_P1;PMS_P2;Temp;Humidity;BMP_temperature;BMP_pressure;BME280_temperature;BME280_humidity;BME280_pressure;Samples;Min_cycle;Max_cycle;Signal;HPM_P1;HPM_P2
2021/03/07 06:20:39;;;;;;;19.05;12.88;;;-0.70;72.80;;;;;;4893385;27;20285;-88
2021/03/07 06:23:05;;;;;;;15.07;13.60;;;-0.90;73.80;;;;;;4878971;29;20177;-87
2021/03/07 06:25:45;;;;;;;12.33;11.20;;;-0.80;75.20;;;;;;4893496;29;20272;-87
2021/03/07 06:28:25;;;;;;;13.65;12.30;;;-0.90;74.60;;;;;;4876885;29;20177;-87
2021/03/07 06:30:52;;;;;;;12.60;11.45;;;-0.70;74.30;;;;;;4893627;29;20289;-88
2021/03/07 06:33:37;;;;;;;14.07;11.98;;;-0.70;73.00;;;;;;4876522;29;20230;-88
2021/03/07 06:36:20;;;;;;;12.00;10.95;;;0.60;71.00;;;;;;4878916;29;20221;-87
2021/03/07 06:38:49;;;;;;;12.32;11.23;;;-0.40;71.30;;;;;;4877874;29;20181;-87
2021/03/07 06:41:20;;;;;;;12.10;11.00;;;-0.40;70.70;;;;;;4879574;29;20191;-86
2021/03/07 06:43:49;;;;;;;12.10;10.90;;;-1.10;66.60;;;;;;4879482;29;20173;-87
2021/03/07 06:46:33;;;;;;;15.88;12.50;;;-0.50;70.00;;;;;;4878445;29;20177;-88
2021/03/07 06:49:00;;;;;;;13.02;11.98;;;-0.50;71.70;;;;;;4879199;29;20169;-87
2021/03/07 06:51:34;;;;;;;12.35;11.15;;;-0.60;70.80;;;;;;4879305;29;20217;-87
2021/03/07 06:54:18;;;;;;;12.23;10.82;;;-0.50;70.80;;;;;;4876632;29;20183;-87
2021/03/07 06:56:46;;;;;;;11.13;10.10;;;-0.30;70.70;;;;;;4881180;29;20177;-88
2021/03/07 06:59:15;;;;;;;12.55;11.25;;;-0.10;69.70;;;;;;4878770;29;20605;-87
2021/03/07 07:01:46;;;;;;;16.73;10.13;;;-0.10;69.90;;;;;;4877267;29;20181;-88
2021/03/07 07:04:13;;;;;;;9.90;9.00;;;0.40;70.20;;;;;;4875029;29;20656;-88
2021/03/07 07:06:39;;;;;;;9.75;9.05;;;0.90;67.70;;;;;;4874152;29;20183;-87
2021/03/07 07:09:17;;;;;;;9.60;8.70;;;1.70;63.80;;;;;;4891828;29;20169;-87
2021/03/07 07:11:47;;;;;;;9.18;8.23;;;3.80;59.90;;;;;;4876642;29;20268;-87
2021/03/07 07:14:27;;;;;;;7.72;7.30;;;2.80;59.40;;;;;;4875687;29;20532;-88
2021/03/07 07:16:53;;;;;;;9.40;8.70;;;3.40;58.10;;;;;;4892394;29;20205;-88
2021/03/07 07:19:20;;;;;;;8.88;8.18;;;3.90;56.40;;;;;;4874031;29;20217;-88
2021/03/07 07:21:47;;;;;;;9.00;8.30;;;1.80;52.90;;;;;;4872753;29;20199;-86
2021/03/07 07:24:16;;;;;;;8.57;7.97;;;4.60;54.40;;;;;;4875666;29;20201;-88
2021/03/07 07:26:44;;;;;;;8.90;8.30;;;4.90;54.10;;;;;;4876156;29;20181;-88
2021/03/07 07:29:10;;;;;;;8.47;8.07;;;5.60;53.40;;;;;;4875848;29;20461;-87
2021/03/07 07:32:07;;;;;;;9.17;8.57;;;6.00;51.90;;;;;;4875533;29;20469;-88
2021/03/07 07:34:45;;;;;;;9.63;9.13;;;7.50;50.40;;;;;;4858640;29;20427;-88
2021/03/07 08:11:28;;;;;;;9.37;8.77;;;10.50;44.70;;;;;;4996402;23;20490;-88
2021/03/07 08:18:13;;;;;;;10.20;9.50;;;13.10;43.50;;;;;;5826108;23;21907;-87
2021/03/07 08:23:28;;;;;;;10.20;9.50;;;11.90;36.00;;;;;;4952083;23;20485;-88
2021/03/07 08:25:54;;;;;;;11.43;10.73;;;9.40;36.90;;;;;;4874346;29;20438;-87
2021/03/07 08:28:36;;;;;;;10.37;9.50;;;10.50;39.50;;;;;;4905836;29;20433;-89
2021/03/07 08:48:26;;;;;;;12.40;11.40;;;12.60;34.10;;;;;;5542472;23;20922;-88
2021/03/07 09:02:52;;;;;;;13.70;12.63;;;14.80;36.40;;;;;;4903896;29;20449;-88
2021/03/07 09:42:30;;;;;;;8.33;7.70;;;15.10;28.50;;;;;;5628991;23;20841;-90
2021/03/07 09:45:00;;;;;;;7.87;7.27;;;17.70;29.40;;;;;;4902044;29;20418;-86
2021/03/07 09:47:41;;;;;;;8.00;7.33;;;15.10;30.10;;;;;;4886063;29;21206;-89
2021/03/07 09:50:40;;;;;;;8.10;7.40;;;16.20;28.80;;;;;;4901997;29;20457;-89
2021/03/07 09:53:52;;;;;;;;;;;;;;;;;;;;;
2021/03/07 09:56:34;;;;;;;8.20;7.50;;;16.50;29.40;;;;;;4902451;29;20418;-89
2021/03/07 09:59:23;;;;;;;7.93;7.43;;;17.30;29.20;;;;;;4900785;29;20421;-88
2021/03/07 10:02:38;;;;;;;8.47;7.70;;;13.30;28.10;;;;;;4898816;29;20437;-90
2021/03/07 10:05:21;;;;;;;8.47;7.97;;;15.50;30.80;;;;;;4898058;29;20450;-88
2021/03/07 10:07:46;;;;;;;7.27;6.97;;;14.40;31.30;;;;;;4865759;29;20421;-89
2021/03/07 10:10:30;;;;;;;8.03;7.40;;;15.10;31.20;;;;;;4880684;29;20418;-89
2021/03/07 10:13:03;;;;;;;6.80;6.40;;;16.70;30.50;;;;;;4897042;29;20223;-88
2021/03/07 10:16:16;;;;;;;6.47;6.13;;;14.40;29.30;;;;;;4884701;29;20663;-87
2021/03/07 10:19:19;;;;;;;6.83;6.43;;;18.10;29.10;;;;;;4867775;29;20501;-89
2021/03/07 10:21:51;;;;;;;6.37;5.93;;;14.90;26.90;;;;;;4884607;29;20417;-87
2021/03/07 10:24:40;;;;;;;6.77;6.40;;;16.20;30.40;;;;;;4860732;29;20435;-89
2021/03/07 10:27:23;;;;;;;7.10;6.30;;;14.70;30.80;;;;;;4869377;29;20433;-88
2021/03/07 10:30:28;;;;;;;7.60;6.37;;;12.30;33.30;;;;;;4895184;29;20444;-90
2021/03/07 10:33:55;;;;;;;;;;;;;;;;;;;;;
2021/03/07 10:37:27;;;;;;;5.77;5.40;;;12.10;36.40;;;;;;4901431;29;20433;-87
2021/03/07 10:40:04;;;;;;;12.30;10.60;;;13.50;36.10;;;;;;4885877;29;20430;-87
2021/03/07 10:45:38;;;;;;;7.60;7.20;;;13.60;29.40;;;;;;552527;27;10002903;-89
2021/03/07 10:48:15;;;;;;;9.73;8.93;;;13.40;28.20;;;;;;4901576;29;20252;-88
2021/03/07 10:50:45;;;;;;;9.70;8.80;;;15.60;29.80;;;;;;4900940;29;20432;-87
2021/03/07 10:53:35;;;;;;;11.03;8.97;;;14.00;29.80;;;;;;4907197;29;20421;-90
2021/03/07 10:59:03;;;;;;;10.83;9.60;;;11.20;29.30;;;;;;4892431;23;20304;-90
2021/03/07 11:01:43;;;;;;;13.90;12.57;;;13.50;32.40;;;;;;4882553;29;20422;-88
2021/03/07 11:04:17;;;;;;;12.63;11.67;;;9.90;33.90;;;;;;4882613;29;20713;-88
2021/03/07 11:06:48;;;;;;;12.87;11.60;;;12.00;32.00;;;;;;4865182;29;20510;-90
2021/03/07 11:09:28;;;;;;;10.47;9.67;;;10.40;30.00;;;;;;4865581;29;20461;-88
2021/03/07 11:11:57;;;;;;;12.80;11.37;;;15.20;29.60;;;;;;4895089;29;20522;-90
2021/03/07 11:14:54;;;;;;;12.90;12.00;;;17.80;30.10;;;;;;4842764;29;20448;-90
2021/03/07 11:17:41;;;;;;;14.60;13.40;;;16.60;28.10;;;;;;4844040;29;20521;-87
2021/03/07 11:21:13;;;;;;;14.23;13.23;;;16.90;26.30;;;;;;4843993;29;20508;-85
2021/03/07 11:23:57;;;;;;;14.80;13.70;;;20.10;27.10;;;;;;4824919;29;20389;-90
2021/03/07 11:26:59;;;;;;;13.97;13.07;;;16.30;26.90;;;;;;4843609;29;20389;-87
2021/03/07 11:43:09;;;;;;;11.90;11.10;;;11.00;28.80;;;;;;4641731;27;20502;-90
2021/03/07 11:45:34;;;;;;;11.33;10.40;;;10.90;28.90;;;;;;4863623;29;20461;-90
2021/03/07 11:50:54;;;;;;;10.00;9.20;;;10.70;29.40;;;;;;5292913;23;20466;-89
2021/03/07 11:53:27;;;;;;;9.17;8.77;;;12.60;29.90;;;;;;4862216;29;20458;-88
2021/03/07 11:55:54;;;;;;;12.23;10.20;;;13.00;28.90;;;;;;4862689;29;20445;-89
2021/03/07 11:58:24;;;;;;;11.60;10.80;;;14.00;28.80;;;;;;4880719;29;20435;-88
2021/03/07 12:01:11;;;;;;;15.07;13.63;;;17.60;28.30;;;;;;4863894;29;20458;-91
2021/03/07 12:03:37;;;;;;;15.93;14.67;;;15.70;26.70;;;;;;4848835;29;20450;-86
2021/03/07 12:06:25;;;;;;;19.23;17.60;;;16.30;28.70;;;;;;4865413;29;20442;-89
2021/03/07 12:08:51;;;;;;;16.77;15.57;;;18.10;26.70;;;;;;4860439;29;20442;-90
2021/03/07 12:11:44;;;;;;;17.50;16.20;;;16.80;27.20;;;;;;4863690;29;20496;-90
2021/03/07 12:14:32;;;;;;;17.27;15.97;;;16.80;27.40;;;;;;4880072;29;20390;-88
2021/03/07 12:17:31;;;;;;;17.00;15.60;;;16.60;27.10;;;;;;4852347;29;20438;-89
2021/03/07 12:22:47;;;;;;;15.90;14.70;;;15.90;25.60;;;;;;4108738;23;20500;-89
2021/03/07 12:25:51;;;;;;;;;;;;;;;;;;;;;
2021/03/07 12:38:53;;;;;;;12.70;11.90;;;16.70;24.30;;;;;;4881990;24;20491;-86
2021/03/07 12:44:48;;;;;;;12.23;11.30;;;18.50;25.40;;;;;;3923301;23;20491;-90
2021/03/07 12:50:10;;;;;;;16.57;15.37;;;15.90;25.20;;;;;;5151908;23;20505;-86
2021/03/07 13:04:02;;;;;;;9.70;8.80;;;15.60;24.80;;;;;;4783645;23;20515;-88
2021/03/07 13:06:45;;;;;;;8.40;8.00;;;16.60;29.10;;;;;;4887098;29;20470;-89
2021/03/07 13:09:16;;;;;;;11.30;10.50;;;17.00;26.60;;;;;;4905200;29;20409;-88
2021/03/07 13:12:18;;;;;;;11.33;10.60;;;16.00;26.00;;;;;;4921726;29;20445;-90
2021/03/07 13:14:54;;;;;;;10.87;10.17;;;18.10;26.40;;;;;;5013266;23;20452;-88
2021/03/07 13:34:50;;;;;;;10.27;9.53;;;17.20;24.50;;;;;;3439551;23;20464;-89
2021/03/07 13:46:04;;;;;;;7.10;6.60;;;19.70;25.80;;;;;;4950048;23;20485;-87
2021/03/07 13:48:29;;;;;;;6.83;6.33;;;19.50;26.20;;;;;;4883074;29;20420;-87
2021/03/07 13:50:58;;;;;;;4.90;4.80;;;18.70;27.10;;;;;;4866114;29;20418;-88
2021/03/07 13:53:24;;;;;;;5.03;4.93;;;18.40;25.70;;;;;;4882632;29;20226;-85
2021/03/07 13:55:50;;;;;;;5.47;5.33;;;15.20;24.10;;;;;;4882161;29;20421;-87
2021/03/07 13:58:15;;;;;;;4.63;4.33;;;17.90;26.80;;;;;;4865762;29;20301;-86
2021/03/07 14:00:41;;;;;;;5.10;4.90;;;13.70;23.40;;;;;;4865231;29;20206;-86
2021/03/07 14:03:07;;;;;;;5.53;5.30;;;14.70;24.00;;;;;;4866860;29;20184;-88
2021/03/07 14:05:33;;;;;;;4.60;4.40;;;17.40;26.10;;;;;;4865099;29;20189;-88
2021/03/07 14:07:58;;;;;;;4.53;4.27;;;17.30;26.40;;;;;;4883358;29;20170;-88
2021/03/07 14:10:24;;;;;;;4.27;4.07;;;15.20;24.60;;;;;;4882806;29;20185;-89
2021/03/07 14:12:50;;;;;;;5.03;4.83;;;17.50;26.00;;;;;;4865722;29;20370;-89
2021/03/07 14:15:16;;;;;;;5.20;4.93;;;18.20;27.90;;;;;;4865921;29;20858;-87
2021/03/07 14:17:43;;;;;;;5.07;4.90;;;16.30;26.90;;;;;;4883080;29;20174;-88
2021/03/07 14:20:14;;;;;;;6.57;6.03;;;17.80;25.70;;;;;;4865317;29;20493;-86
2021/03/07 14:22:40;;;;;;;4.00;3.97;;;15.20;24.70;;;;;;4865936;29;20766;-87
2021/03/07 14:25:08;;;;;;;5.00;4.70;;;16.50;25.50;;;;;;4529283;29;9999787;-88
2021/03/07 14:27:36;;;;;;;4.57;4.43;;;15.60;25.70;;;;;;4880957;29;20422;-87
2021/03/07 14:30:08;;;;;;;4.03;3.93;;;14.90;25.60;;;;;;4862587;29;20417;-88
2021/03/07 14:32:34;;;;;;;5.03;4.93;;;15.00;25.80;;;;;;4875702;29;21049;-84
2021/03/07 14:35:04;;;;;;;5.10;4.80;;;13.10;24.30;;;;;;4854943;29;20434;-88
2021/03/07 14:37:32;;;;;;;4.03;3.83;;;15.50;26.10;;;;;;4880022;29;20418;-89
2021/03/07 14:40:05;;;;;;;8.30;5.70;;;16.60;27.70;;;;;;4879961;29;20438;-88
2021/03/07 14:42:32;;;;;;;5.63;5.33;;;15.40;25.90;;;;;;4879871;29;20429;-87
2021/03/07 14:44:57;;;;;;;5.07;4.67;;;16.70;26.00;;;;;;4879859;29;20992;-89
2021/03/07 14:47:23;;;;;;;3.60;3.30;;;16.80;26.50;;;;;;4880593;29;20456;-87
2021/03/07 14:49:49;;;;;;;4.60;4.50;;;14.50;24.90;;;;;;4878763;29;20220;-87
2021/03/07 14:52:14;;;;;;;3.97;3.87;;;16.00;26.00;;;;;;4879607;29;20217;-88
2021/03/07 14:54:46;;;;;;;3.73;3.60;;;14.30;24.80;;;;;;4878088;29;20166;-87
2021/03/07 14:57:11;;;;;;;2.90;2.87;;;14.10;24.60;;;;;;4879647;29;20173;-88
2021/03/07 14:59:37;;;;;;;3.47;3.37;;;13.20;25.60;;;;;;4881338;29;20421;-86
2021/03/07 15:02:20;;;;;;;3.00;3.00;;;14.40;27.00;;;;;;4863752;29;20570;-88
2021/03/07 15:04:46;;;;;;;4.33;4.10;;;13.20;28.10;;;;;;4881581;29;20180;-88
2021/03/07 15:07:12;;;;;;;3.33;3.13;;;12.50;25.60;;;;;;4880864;29;20425;-88
2021/03/07 15:09:40;;;;;;;3.70;3.60;;;13.00;25.80;;;;;;4880646;29;20185;-87
2021/03/07 15:12:06;;;;;;;3.23;3.23;;;15.10;27.10;;;;;;4863848;29;20252;-87
2021/03/07 15:14:32;;;;;;;3.87;3.70;;;13.00;26.80;;;;;;4882197;29;20527;-87
2021/03/07 15:16:57;;;;;;;4.00;3.80;;;15.10;27.60;;;;;;4877637;29;20269;-89
2021/03/07 15:19:25;;;;;;;15.40;10.57;;;13.30;27.00;;;;;;4864622;29;20185;-88
2021/03/07 15:21:52;;;;;;;33.33;17.67;;;13.80;28.30;;;;;;4863675;29;20181;-89
2021/03/07 15:24:28;;;;;;;10.50;8.80;;;11.30;27.00;;;;;;4864451;29;20423;-92
2021/03/07 15:26:53;;;;;;;4.53;4.33;;;10.70;27.50;;;;;;5238787;23;20447;-89
2021/03/07 15:29:41;;;;;;;6.77;6.50;;;10.20;29.10;;;;;;4864959;29;20470;-89
2021/03/07 15:32:23;;;;;;;4.47;4.23;;;10.20;27.70;;;;;;5084570;23;20295;-88
2021/03/07 15:34:55;;;;;;;4.27;3.87;;;7.90;28.20;;;;;;5057366;23;20481;-89
2021/03/07 15:37:25;;;;;;;3.53;3.27;;;10.10;28.60;;;;;;5034831;23;20517;-88
2021/03/07 15:39:51;;;;;;;2.77;2.67;;;12.00;31.70;;;;;;4866911;29;20438;-86
2021/03/07 15:42:28;;;;;;;3.90;2.10;;;9.50;30.60;;;;;;4881921;29;20410;-89
2021/03/07 15:47:53;;;;;;;3.30;3.02;;;8.40;30.00;;;;;;4910807;23;10000445;-88
2021/03/07 15:50:19;;;;;;;3.63;3.43;;;13.00;34.00;;;;;;4881219;29;20402;-86
2021/03/07 15:53:23;;;;;;;9.83;8.83;;;7.70;32.20;;;;;;4883030;29;20480;-90
2021/03/07 15:55:58;;;;;;;2.33;2.28;;;9.30;32.90;;;;;;5037143;23;20490;-89
2021/03/07 15:58:29;;;;;;;2.30;2.30;;;8.90;31.00;;;;;;4861056;29;20180;-90
2021/03/07 16:01:01;;;;;;;2.60;2.50;;;10.80;31.20;;;;;;4872827;29;20422;-86
2021/03/07 16:03:37;;;;;;;2.50;2.50;;;9.00;32.40;;;;;;4879018;29;20490;-88
2021/03/07 16:06:14;;;;;;;4.00;3.70;;;8.90;30.60;;;;;;4860811;29;20434;-87
2021/03/07 16:08:39;;;;;;;2.77;2.60;;;10.60;32.30;;;;;;4864889;29;20514;-88
2021/03/07 16:11:05;;;;;;;2.47;2.40;;;8.00;33.40;;;;;;4881412;29;20447;-86
2021/03/07 16:14:24;;;;;;;2.40;2.40;;;11.60;34.30;;;;;;4882357;29;20186;-87
2021/03/07 16:17:05;;;;;;;2.88;2.70;;;9.20;31.20;;;;;;4878773;29;20492;-86
2021/03/07 16:19:55;;;;;;;4.20;3.90;;;10.90;36.40;;;;;;4864843;29;20190;-89
2021/03/07 16:22:24;;;;;;;4.57;4.10;;;10.60;32.00;;;;;;4882143;29;20222;-87
2021/03/07 16:24:51;;;;;;;3.33;3.13;;;10.30;32.70;;;;;;4867217;29;20186;-86
2021/03/07 16:27:23;;;;;;;4.00;3.13;;;8.20;33.10;;;;;;4951101;23;20264;-88
2021/03/07 16:32:24;;;;;;;4.63;4.10;;;7.80;31.90;;;;;;5098969;23;20259;-91
2021/03/07 16:35:12;;;;;;;3.83;3.57;;;7.30;34.80;;;;;;4902514;29;20177;-89
2021/03/07 16:43:04;;;;;;;6.53;3.65;;;7.60;32.60;;;;;;5137146;23;20249;-85
2021/03/07 16:45:42;;;;;;;3.35;3.15;;;7.80;37.00;;;;;;5236146;23;20506;-86
2021/03/07 16:56:45;;;;;;;4.18;3.90;;;11.30;38.60;;;;;;4889054;29;20212;-88
2021/03/07 16:59:12;;;;;;;3.75;3.40;;;9.30;35.40;;;;;;4893504;29;20193;-88
2021/03/07 17:01:43;;;;;;;3.78;3.67;;;9.10;41.20;;;;;;4892093;29;20165;-89
2021/03/07 17:12:46;;;;;;;3.30;3.22;;;6.30;35.30;;;;;;5297829;23;20221;-90
2021/03/07 17:27:30;;;;;;;3.55;3.00;;;5.80;37.30;;;;;;5322632;23;20220;-89
2021/03/07 17:32:33;;;;;;;6.22;5.68;;;5.70;38.00;;;;;;5019710;23;20236;-88
2021/03/07 17:35:06;;;;;;;4.20;4.00;;;5.70;38.90;;;;;;4883517;29;20249;-88
2021/03/07 17:37:33;;;;;;;6.88;5.70;;;5.80;39.90;;;;;;4881698;29;20196;-87
2021/03/07 17:39:59;;;;;;;3.22;3.03;;;5.50;39.50;;;;;;4895900;29;20182;-86
2021/03/07 17:42:35;;;;;;;3.33;3.10;;;5.50;40.30;;;;;;4899034;29;20177;-86
2021/03/07 17:45:19;;;;;;;3.17;2.92;;;6.70;41.20;;;;;;4883318;29;20181;-88
2021/03/07 17:47:51;;;;;;;3.45;3.17;;;6.00;38.30;;;;;;4876423;29;20190;-88
2021/03/07 17:50:40;;;;;;;4.03;3.72;;;5.60;38.30;;;;;;4897321;29;20220;-89
2021/03/07 17:53:09;;;;;;;5.57;4.68;;;7.70;40.30;;;;;;4901343;29;20192;-86
2021/03/07 17:59:06;;;;;;;;;;;;;;;;;;;;;
2021/03/07 18:33:37;;;;;;;4.20;4.10;;;4.10;51.50;;;;;;4949245;23;20233;-88
2021/03/07 18:36:05;;;;;;;5.38;4.90;;;4.00;51.20;;;;;;4882350;29;20275;-88
2021/03/07 18:38:31;;;;;;;4.18;3.60;;;3.90;72.00;;;;;;4919918;23;20240;-87
2021/03/07 18:41:08;;;;;;;9.80;5.80;;;3.90;52.80;;;;;;4879489;29;20198;-87
2021/03/07 18:44:15;;;;;;;5.88;5.57;;;4.00;52.80;;;;;;4882652;29;20393;-87
2021/03/07 18:50:25;;;;;;;7.22;6.72;;;3.80;54.20;;;;;;4532767;27;20230;-88
2021/03/07 18:53:12;;;;;;;6.25;5.85;;;4.60;56.80;;;;;;4882146;29;20214;-89
2021/03/07 19:42:49;;;;;;;6.57;5.95;;;4.50;58.20;;;;;;4908685;29;20149;-88
2021/03/07 19:46:10;;;;;;;6.13;5.73;;;3.10;58.00;;;;;;4907758;29;20177;-83
2021/03/07 19:49:05;;;;;;;6.72;6.00;;;5.60;59.20;;;;;;5463927;23;20233;-87
2021/03/07 19:51:33;;;;;;;7.68;6.00;;;-0.80;55.00;;;;;;4874446;29;20188;-88
2021/03/07 20:15:17;;;;;;;8.27;6.70;;;3.50;56.40;;;;;;5060576;23;20220;-89
2021/03/07 20:25:48;;;;;;;7.00;6.30;;;3.50;56.30;;;;;;5125256;23;20237;-90
2021/03/07 21:11:39;;;;;;;7.80;7.00;;;3.90;56.20;;;;;;4847703;23;20213;-82
2021/03/07 21:50:48;;;;;;;6.43;6.03;;;3.70;57.70;;;;;;5207594;23;20229;-89
2021/03/07 21:53:53;;;;;;;8.63;7.60;;;3.50;57.50;;;;;;4889337;29;20197;-88
2021/03/07 21:57:31;;;;;;;6.50;6.10;;;5.10;58.30;;;;;;4904153;29;20189;-89
2021/03/07 22:04:27;;;;;;;6.80;6.40;;;6.30;59.00;;;;;;4863919;29;20196;-89
2021/03/07 22:10:50;;;;;;;6.93;6.35;;;3.60;57.10;;;;;;4872545;29;20184;-89
2021/03/07 22:13:52;;;;;;;7.18;6.63;;;3.80;58.60;;;;;;4869971;29;20242;-89
2021/03/07 22:16:43;;;;;;;7.20;6.60;;;5.10;57.70;;;;;;4878989;29;20193;-89
2021/03/07 22:22:49;;;;;;;7.18;6.68;;;6.40;59.20;;;;;;4903623;29;20190;-88
2021/03/07 22:28:45;;;;;;;8.98;8.18;;;6.40;58.70;;;;;;4877118;29;20218;-88
2021/03/07 22:31:54;;;;;;;9.13;8.25;;;5.40;57.90;;;;;;4890901;29;20181;-88
2021/03/07 22:34:55;;;;;;;8.63;7.82;;;3.30;56.90;;;;;;4886660;29;20177;-89
2021/03/07 22:37:49;;;;;;;7.97;7.45;;;6.00;58.40;;;;;;5025791;23;20233;-89
2021/03/07 22:51:25;;;;;;;7.60;7.10;;;3.90;57.80;;;;;;5532818;23;20248;-89
2021/03/07 22:54:13;;;;;;;8.30;7.55;;;3.90;59.00;;;;;;4903815;29;20245;-88
2021/03/07 22:56:47;;;;;;;8.52;7.72;;;3.90;59.20;;;;;;4851831;29;20212;-91
2021/03/07 22:59:44;;;;;;;7.30;6.65;;;3.90;56.90;;;;;;4886950;29;20189;-89
2021/03/07 23:02:53;;;;;;;7.93;7.43;;;4.00;59.80;;;;;;4900468;29;20170;-89
2021/03/07 23:06:05;;;;;;;8.57;7.93;;;2.70;57.60;;;;;;4851718;29;20181;-89
2021/03/07 23:43:07;;;;;;;7.45;6.90;;;4.10;58.90;;;;;;5593062;23;20249;-88
2021/03/07 23:48:50;;;;;;;9.38;8.48;;;3.90;59.20;;;;;;5139412;23;20220;-89
2021/03/07 23:51:15;;;;;;;8.23;7.53;;;3.90;60.60;;;;;;4871721;29;20181;-89
